Time;durP1;ratioP1;P1;durP2;ratioP2;P2;SDS_P1;SDS_P2;PMS_P1;PMS_P2;Temp;Humidity;BMP_temperature;BMP_pressure;BME280_temperature;BME280_humidity;BME280_pressure;Samples;Min_cycle;Max_cycle;Signal;HPM_P1;HPM_P2
2023/03/11 00:00:37;;;;;;;1.33;1.20;;;;;;;;;;6190176;23;20517;-74
2023/03/11 00:03:42;;;;;;;1.40;1.30;;;;;;;;;;6191003;23;20500;-74
2023/03/11 00:06:46;;;;;;;1.87;1.20;;;;;;;;;;6191952;23;20501;-74
2023/03/11 00:09:50;;;;;;;1.03;0.80;;;;;;;;;;6191973;23;20505;-74
2023/03/11 00:12:55;;;;;;;1.10;1.00;;;;;;;;;;6163875;23;20548;-74
2023/03/11 00:16:00;;;;;;;0.90;0.87;;;;;;;;;;6190636;23;20501;-73
2023/03/11 00:19:04;;;;;;;1.00;0.90;;;;;;;;;;6182534;23;20862;-74
2023/03/11 00:22:08;;;;;;;1.20;0.80;;;;;;;;;;6182076;23;20588;-74
2023/03/11 00:25:13;;;;;;;0.90;0.90;;;;;;;;;;6191700;23;20513;-73
2023/03/11 00:28:18;;;;;;;0.83;0.70;;;;;;;;;;6191815;23;20848;-74
2023/03/11 00:31:25;;;;;;;0.90;0.90;;;;;;;;;;6188074;23;20588;-74
2023/03/11 00:34:29;;;;;;;0.87;0.87;;;;;;;;;;6190806;23;21088;-74
2023/03/11 00:37:33;;;;;;;1.10;1.00;;;;;;;;;;6190542;23;21052;-74
2023/03/11 00:40:37;;;;;;;1.20;1.00;;;;;;;;;;6189826;23;20505;-74
2023/03/11 00:43:42;;;;;;;1.63;0.90;;;;;;;;;;6190590;23;20512;-74
2023/03/11 00:46:46;;;;;;;1.03;0.93;;;;;;;;;;6173776;23;20505;-74
2023/03/11 00:49:50;;;;;;;1.47;0.97;;;;;;;;;;6172965;23;20817;-74
2023/03/11 00:52:55;;;;;;;1.10;1.00;;;;;;;;;;6173397;23;20516;-74
2023/03/11 00:56:08;;;;;;;1.17;1.00;;;;;;;;;;6190785;23;20505;-74
2023/03/11 00:59:13;;;;;;;1.57;0.90;;;;;;;;;;6173480;23;20822;-74
2023/03/11 01:02:17;;;;;;;1.23;1.03;;;;;;;;;;6182963;23;20572;-74
2023/03/11 01:05:25;;;;;;;1.80;1.10;;;;;;;;;;6191708;23;20501;-74
2023/03/11 01:08:30;;;;;;;1.10;1.00;;;;;;;;;;6163552;23;20552;-74
2023/03/11 01:11:34;;;;;;;0.77;0.77;;;;;;;;;;6169001;23;20576;-74
2023/03/11 01:14:39;;;;;;;1.20;1.10;;;;;;;;;;6173477;23;20556;-74
2023/03/11 01:17:43;;;;;;;2.70;1.20;;;;;;;;;;6156598;23;20504;-74
2023/03/11 01:20:48;;;;;;;1.30;1.10;;;;;;;;;;6189228;23;20505;-74
2023/03/11 01:23:52;;;;;;;1.20;1.10;;;;;;;;;;6190291;23;20509;-74
2023/03/11 01:26:56;;;;;;;1.70;1.40;;;;;;;;;;6190629;23;20505;-74
2023/03/11 01:30:02;;;;;;;1.07;0.90;;;;;;;;;;6190956;23;20501;-75
2023/03/11 01:33:07;;;;;;;1.80;1.20;;;;;;;;;;6173419;23;20501;-74
2023/03/11 01:36:12;;;;;;;1.77;1.13;;;;;;;;;;6180480;23;20548;-75
2023/03/11 01:39:16;;;;;;;1.20;1.10;;;;;;;;;;6181223;23;20560;-75
2023/03/11 01:42:20;;;;;;;1.67;1.20;;;;;;;;;;6181075;23;20579;-74
2023/03/11 01:45:28;;;;;;;0.90;0.90;;;;;;;;;;6180173;23;20540;-74
2023/03/11 01:48:32;;;;;;;1.10;1.00;;;;;;;;;;6163141;23;20544;-74
2023/03/11 01:51:43;;;;;;;1.30;1.20;;;;;;;;;;6181864;23;20591;-74
2023/03/11 01:54:49;;;;;;;1.10;1.00;;;;;;;;;;6163602;23;20600;-74
2023/03/11 01:57:53;;;;;;;1.70;1.40;;;;;;;;;;6190222;23;20513;-75
2023/03/11 02:00:59;;;;;;;0.93;0.93;;;;;;;;;;6188240;23;20572;-75
2023/03/11 02:04:04;;;;;;;2.00;1.30;;;;;;;;;;6191555;23;20496;-75
2023/03/11 02:07:10;;;;;;;1.40;1.30;;;;;;;;;;6191463;23;21044;-75
2023/03/11 02:10:14;;;;;;;1.13;1.10;;;;;;;;;;6174103;23;20501;-74
2023/03/11 02:13:19;;;;;;;1.20;1.10;;;;;;;;;;6191254;23;20512;-75
2023/03/11 02:16:24;;;;;;;1.80;1.40;;;;;;;;;;6174337;23;20500;-75
2023/03/11 02:20:06;;;;;;;1.30;1.20;;;;;;;;;;6191837;23;21013;-75
2023/03/11 02:23:13;;;;;;;2.60;1.17;;;;;;;;;;6157451;23;21024;-74
2023/03/11 02:26:23;;;;;;;2.03;1.30;;;;;;;;;;6191417;23;20497;-74
2023/03/11 02:29:29;;;;;;;1.10;1.00;;;;;;;;;;6157258;23;20509;-74
2023/03/11 02:32:34;;;;;;;1.73;1.40;;;;;;;;;;6181075;23;20576;-74
2023/03/11 02:35:38;;;;;;;1.30;1.20;;;;;;;;;;6190979;23;20555;-74
2023/03/11 02:38:42;;;;;;;2.60;1.27;;;;;;;;;;6174291;23;20505;-74
2023/03/11 02:41:46;;;;;;;2.07;1.30;;;;;;;;;;6185763;23;20576;-75
2023/03/11 02:45:15;;;;;;;2.60;1.20;;;;;;;;;;6164308;23;20552;-74
2023/03/11 02:48:20;;;;;;;1.27;1.07;;;;;;;;;;6191359;23;20505;-74
2023/03/11 02:51:24;;;;;;;1.20;1.10;;;;;;;;;;6182437;23;20616;-75
2023/03/11 02:54:28;;;;;;;1.23;1.13;;;;;;;;;;6190903;23;20556;-74
2023/03/11 02:57:32;;;;;;;2.83;1.20;;;;;;;;;;6191226;23;20508;-74
2023/03/11 03:00:37;;;;;;;1.03;0.97;;;;;;;;;;6190306;23;20500;-74
2023/03/11 03:03:43;;;;;;;1.87;1.20;;;;;;;;;;6191248;23;20825;-74
2023/03/11 03:06:47;;;;;;;0.97;0.97;;;;;;;;;;6146937;23;20858;-74
2023/03/11 03:09:53;;;;;;;1.80;1.33;;;;;;;;;;6181507;23;20551;-75
2023/03/11 03:12:57;;;;;;;1.77;1.10;;;;;;;;;;6156791;23;20512;-75
2023/03/11 03:16:02;;;;;;;1.00;1.00;;;;;;;;;;6174343;23;20821;-74
2023/03/11 03:19:06;;;;;;;1.40;1.20;;;;;;;;;;6190905;23;20508;-75
2023/03/11 03:22:10;;;;;;;1.23;0.90;;;;;;;;;;6181206;23;20576;-74
2023/03/11 03:25:15;;;;;;;1.77;1.20;;;;;;;;;;6190832;23;20496;-74
2023/03/11 03:28:19;;;;;;;1.03;0.93;;;;;;;;;;6157353;23;21029;-74
2023/03/11 03:31:24;;;;;;;1.00;0.93;;;;;;;;;;6188088;23;20576;-74
2023/03/11 03:34:28;;;;;;;1.70;1.10;;;;;;;;;;6191096;23;20556;-75
2023/03/11 03:37:34;;;;;;;1.70;1.20;;;;;;;;;;6164020;23;20548;-74
2023/03/11 03:40:44;;;;;;;2.90;0.90;;;;;;;;;;6163902;23;20552;-74
2023/03/11 03:43:49;;;;;;;1.07;1.00;;;;;;;;;;6181253;23;20552;-74
2023/03/11 03:46:54;;;;;;;4.03;1.07;;;;;;;;;;6191118;23;20505;-74
2023/03/11 03:49:58;;;;;;;1.40;1.20;;;;;;;;;;6180945;23;21242;-75
2023/03/11 03:53:02;;;;;;;1.30;1.20;;;;;;;;;;6190901;23;20516;-74
2023/03/11 03:56:13;;;;;;;1.17;1.07;;;;;;;;;;6191958;23;21087;-74
2023/03/11 03:59:17;;;;;;;2.37;1.40;;;;;;;;;;6173652;23;20513;-74
2023/03/11 04:02:27;;;;;;;1.40;1.30;;;;;;;;;;6165339;23;20576;-74
2023/03/11 04:05:32;;;;;;;3.03;1.00;;;;;;;;;;6173491;23;20505;-74
2023/03/11 04:08:37;;;;;;;1.40;1.20;;;;;;;;;;6190976;23;20500;-74
2023/03/11 04:11:41;;;;;;;1.17;1.07;;;;;;;;;;6151789;23;20886;-74
2023/03/11 04:14:47;;;;;;;1.13;1.03;;;;;;;;;;6174131;23;21071;-75
2023/03/11 04:17:51;;;;;;;1.30;0.90;;;;;;;;;;6190976;23;21004;-74
2023/03/11 04:20:55;;;;;;;2.23;1.07;;;;;;;;;;6188928;23;20572;-74
2023/03/11 04:24:00;;;;;;;0.87;0.87;;;;;;;;;;6174252;23;20505;-74
2023/03/11 04:27:08;;;;;;;0.97;0.80;;;;;;;;;;6174333;23;20501;-74
2023/03/11 04:30:13;;;;;;;1.00;0.90;;;;;;;;;;6180837;23;20548;-75
2023/03/11 04:33:18;;;;;;;2.00;0.80;;;;;;;;;;6190557;23;21029;-75
2023/03/11 04:36:23;;;;;;;1.17;0.90;;;;;;;;;;6173690;23;20518;-74
2023/03/11 04:39:27;;;;;;;0.60;0.60;;;;;;;;;;6173742;23;20500;-74
2023/03/11 04:42:32;;;;;;;2.50;0.70;;;;;;;;;;6164771;23;20576;-74
2023/03/11 04:45:41;;;;;;;2.40;0.80;;;;;;;;;;6174101;23;20804;-74
2023/03/11 04:48:45;;;;;;;1.10;0.70;;;;;;;;;;6173805;23;20504;-74
2023/03/11 04:51:50;;;;;;;0.47;0.47;;;;;;;;;;6181351;23;20591;-74
2023/03/11 04:54:57;;;;;;;1.60;0.80;;;;;;;;;;6190381;23;20552;-74
2023/03/11 04:58:02;;;;;;;1.43;0.70;;;;;;;;;;6190680;23;20513;-74
2023/03/11 05:01:07;;;;;;;2.97;0.87;;;;;;;;;;6187999;23;21120;-74
2023/03/11 05:04:12;;;;;;;0.97;0.87;;;;;;;;;;6173745;23;20501;-75
2023/03/11 05:07:17;;;;;;;2.23;0.73;;;;;;;;;;6173287;23;20517;-75
2023/03/11 05:10:22;;;;;;;1.83;0.80;;;;;;;;;;6180728;23;20548;-74
2023/03/11 05:13:30;;;;;;;3.07;0.90;;;;;;;;;;6173267;23;20513;-73
2023/03/11 05:16:35;;;;;;;1.67;0.80;;;;;;;;;;6190293;23;20509;-74
2023/03/11 05:19:41;;;;;;;1.50;0.70;;;;;;;;;;6173889;23;20505;-74
2023/03/11 05:22:54;;;;;;;1.10;0.70;;;;;;;;;;6190297;23;20513;-75
2023/03/11 05:25:58;;;;;;;2.70;1.07;;;;;;;;;;6182211;23;20864;-75
2023/03/11 05:29:03;;;;;;;4.50;1.10;;;;;;;;;;6180530;23;20548;-74
2023/03/11 05:32:07;;;;;;;1.70;0.73;;;;;;;;;;6183505;23;20571;-74
2023/03/11 05:35:11;;;;;;;2.27;0.90;;;;;;;;;;6191079;23;20557;-74
2023/03/11 05:38:16;;;;;;;1.80;0.93;;;;;;;;;;6189762;23;20500;-74
2023/03/11 05:41:21;;;;;;;1.33;0.90;;;;;;;;;;6168814;23;20568;-75
2023/03/11 05:44:26;;;;;;;3.10;1.10;;;;;;;;;;6294129;22;21196;-75
2023/03/11 05:47:32;;;;;;;2.43;0.80;;;;;;;;;;6305864;22;20556;-74
2023/03/11 05:50:37;;;;;;;2.07;0.87;;;;;;;;;;6296959;22;20520;-74
2023/03/11 05:53:47;;;;;;;1.90;1.00;;;;;;;;;;6316611;22;20513;-74
2023/03/11 05:56:54;;;;;;;2.50;1.00;;;;;;;;;;6316747;22;20513;-74
